createdAt,value
2019-03-22T00:00:04.642Z,275.15
2019-03-22T00:01:34.958Z,275.15
2019-03-22T00:03:04.475Z,275.09
2019-03-22T00:04:34.076Z,275.02
2019-03-22T00:06:03.522Z,275.02
2019-03-22T00:07:32.958Z,275.02
2019-03-22T00:09:02.846Z,275.02
2019-03-22T00:10:33.997Z,275.02
2019-03-22T00:12:04.342Z,275.02
2019-03-22T00:13:33.917Z,274.96
2019-03-22T00:15:03.357Z,274.96
2019-03-22T00:16:32.798Z,274.9
2019-03-22T00:18:03.357Z,274.9
2019-03-22T00:19:32.876Z,274.96
2019-03-22T00:21:03.997Z,275.02
2019-03-22T00:22:34.395Z,274.96
2019-03-22T00:24:03.916Z,274.9
2019-03-22T00:25:33.513Z,274.77
2019-03-22T00:27:02.952Z,274.71
2019-03-22T00:28:41.465Z,274.71
2019-03-22T00:30:11.032Z,274.77
2019-03-22T00:31:40.484Z,274.9
2019-03-22T00:33:09.912Z,274.84
2019-03-22T00:34:39.433Z,274.9
2019-03-22T00:36:10.074Z,274.84
2019-03-22T00:37:39.912Z,274.84
2019-03-22T00:39:09.911Z,274.84
2019-03-22T00:42:09.909Z,274.71
2019-03-22T00:43:41.191Z,274.65
2019-03-22T00:45:10.790Z,274.65
2019-03-22T00:46:40.231Z,274.65
2019-03-22T00:48:09.670Z,274.65
2019-03-22T00:49:39.273Z,274.65
2019-03-22T00:51:10.551Z,274.71
2019-03-22T00:52:41.917Z,274.65
2019-03-22T00:54:11.431Z,274.65
2019-03-22T00:55:40.873Z,274.65
2019-03-22T00:57:10.469Z,274.65
2019-03-22T00:58:41.751Z,274.65
2019-03-22T01:00:11.189Z,274.65
2019-03-22T01:01:40.632Z,274.65
2019-03-22T01:03:10.069Z,274.65
2019-03-22T01:04:40.399Z,274.71
2019-03-22T01:06:09.832Z,274.71
2019-03-22T01:07:39.269Z,274.71
2019-03-22T01:09:08.716Z,274.71
2019-03-22T01:10:38.870Z,274.71
2019-03-22T01:12:08.312Z,274.71
2019-03-22T01:13:37.753Z,274.71
2019-03-22T01:15:07.748Z,274.71
2019-03-22T01:16:37.189Z,274.71
2019-03-22T01:18:06.627Z,274.71
2019-03-22T01:19:36.310Z,274.71
2019-03-22T01:21:06.229Z,274.65
2019-03-22T01:22:35.666Z,274.46
2019-03-22T01:24:05.109Z,274.46
2019-03-22T01:25:34.578Z,274.46
2019-03-22T01:27:03.990Z,274.46
2019-03-22T01:28:33.440Z,274.46
2019-03-22T01:30:02.952Z,274.34
2019-03-22T01:31:33.274Z,274.34
2019-03-22T01:33:02.717Z,274.27
2019-03-22T01:34:32.347Z,274.21
2019-03-22T01:36:01.837Z,274.21
2019-03-22T01:37:31.357Z,274.27
2019-03-22T01:39:00.957Z,274.27
2019-03-22T01:40:30.478Z,274.27
2019-03-22T01:42:00.797Z,274.34
2019-03-22T01:43:30.238Z,274.4
2019-03-22T01:44:59.676Z,274.34
2019-03-22T01:46:29.196Z,274.4
2019-03-22T01:47:58.638Z,274.4
2019-03-22T01:49:28.079Z,274.34
2019-03-22T01:50:57.519Z,274.34
2019-03-22T01:52:27.050Z,274.15
2019-03-22T01:53:57.840Z,274.15
2019-03-22T01:55:27.439Z,274.15
2019-03-22T01:56:56.886Z,274.15
2019-03-22T01:58:26.645Z,274.15
2019-03-22T01:59:56.161Z,274.09
2019-03-22T02:01:25.760Z,274.09
2019-03-22T02:02:55.201Z,274.09
2019-03-22T02:04:24.720Z,274.09
2019-03-22T02:05:54.481Z,274.15
2019-03-22T02:07:24.160Z,274.02
2019-03-22T02:08:54.019Z,274.02
2019-03-22T02:10:24.725Z,273.96
2019-03-22T02:11:54.400Z,273.96
2019-03-22T02:13:24.641Z,273.96
2019-03-22T02:14:54.081Z,274.02
2019-03-22T02:16:23.522Z,274.02
2019-03-22T02:17:55.042Z,274.09
2019-03-22T02:19:25.538Z,274.09
2019-03-22T02:20:55.045Z,274.02
2019-03-22T02:22:24.482Z,273.96
2019-03-22T02:23:53.929Z,273.96
2019-03-22T02:25:23.382Z,273.96
2019-03-22T02:26:53.685Z,273.9
2019-03-22T02:28:23.123Z,273.84
2019-03-22T02:29:52.725Z,273.84
2019-03-22T02:31:22.420Z,273.9
2019-03-22T02:32:53.607Z,273.9
2019-03-22T02:34:23.070Z,273.96
2019-03-22T02:35:53.038Z,273.96
2019-03-22T02:37:22.558Z,273.9
2019-03-22T02:38:52.953Z,273.9
2019-03-22T02:40:22.394Z,273.77
2019-03-22T02:41:51.916Z,273.77
2019-03-22T02:43:21.434Z,273.71
2019-03-22T02:44:51.040Z,273.77
2019-03-22T02:46:22.230Z,273.77
2019-03-22T02:47:51.668Z,273.77
2019-03-22T02:49:21.189Z,273.84
2019-03-22T02:50:50.711Z,273.71
2019-03-22T02:52:21.026Z,273.77
2019-03-22T02:53:50.564Z,273.77
2019-03-22T02:55:20.150Z,273.77
2019-03-22T02:56:49.687Z,273.77
2019-03-22T02:58:21.322Z,273.9
2019-03-22T02:59:50.947Z,274.02
2019-03-22T03:01:20.467Z,274.09
2019-03-22T03:02:50.870Z,274.02
2019-03-22T03:04:21.270Z,274.09
2019-03-22T03:05:52.231Z,274.09
2019-03-22T03:07:24.155Z,274.02
2019-03-22T03:08:53.588Z,274.02
2019-03-22T03:10:23.032Z,273.9
2019-03-22T03:11:52.948Z,273.9
2019-03-22T03:13:22.389Z,273.84
2019-03-22T03:14:51.984Z,273.84
2019-03-22T03:16:21.503Z,273.84
2019-03-22T03:17:51.066Z,273.77
2019-03-22T03:19:20.601Z,273.71
2019-03-22T03:20:50.063Z,273.65
2019-03-22T03:22:19.581Z,273.65
2019-03-22T03:23:49.183Z,273.65
2019-03-22T03:25:18.707Z,273.71
2019-03-22T03:26:48.710Z,273.71
2019-03-22T03:28:18.863Z,273.77
2019-03-22T03:30:02.227Z,273.71
2019-03-22T03:31:31.748Z,273.71
2019-03-22T03:33:01.269Z,273.71
2019-03-22T03:34:30.851Z,273.71
2019-03-22T03:36:01.269Z,273.71
2019-03-22T03:37:30.702Z,273.71
2019-03-22T03:39:01.103Z,273.65
2019-03-22T03:40:30.623Z,273.59
2019-03-22T03:42:00.145Z,273.59
2019-03-22T03:43:29.742Z,273.59
2019-03-22T03:44:59.276Z,273.65
2019-03-22T03:46:29.740Z,273.65
2019-03-22T03:48:00.061Z,273.65
2019-03-22T03:49:30.463Z,273.65
2019-03-22T03:51:00.860Z,273.59
2019-03-22T03:52:32.064Z,273.52
2019-03-22T03:54:05.022Z,273.52
2019-03-22T03:55:34.543Z,273.52
2019-03-22T03:57:04.139Z,273.52
2019-03-22T03:58:34.302Z,273.46
2019-03-22T04:00:18.218Z,273.52
2019-03-22T04:01:48.618Z,273.59
2019-03-22T04:03:18.156Z,273.52
2019-03-22T04:04:47.738Z,273.52
2019-03-22T04:06:18.137Z,273.52
2019-03-22T04:07:47.660Z,273.59
2019-03-22T04:09:19.016Z,273.59
2019-03-22T04:10:49.094Z,273.52
2019-03-22T04:12:18.858Z,273.52
2019-03-22T04:13:48.303Z,273.52
2019-03-22T04:15:18.698Z,273.59
2019-03-22T04:16:49.024Z,273.59
2019-03-22T04:18:18.544Z,273.52
2019-03-22T04:19:48.068Z,273.52
2019-03-22T04:21:18.476Z,273.52
2019-03-22T04:22:48.875Z,273.52
2019-03-22T04:24:19.737Z,273.4
2019-03-22T04:25:49.357Z,273.34
2019-03-22T04:27:18.875Z,273.34
2019-03-22T04:28:48.399Z,273.34
2019-03-22T04:30:33.446Z,273.4
2019-03-22T04:32:02.881Z,273.4
2019-03-22T04:33:32.325Z,273.46
2019-03-22T04:35:01.761Z,273.4
2019-03-22T04:36:31.521Z,273.46
2019-03-22T04:38:02.038Z,273.4
2019-03-22T04:39:31.443Z,273.27
2019-03-22T04:41:01.844Z,273.21
2019-03-22T04:42:31.445Z,273.21
2019-03-22T04:44:01.771Z,273.21
2019-03-22T04:45:31.221Z,273.34
2019-03-22T04:47:00.649Z,273.4
2019-03-22T04:48:30.087Z,273.27
2019-03-22T04:49:59.694Z,273.27
2019-03-22T04:51:29.287Z,273.27
2019-03-22T04:52:58.806Z,273.15
2019-03-22T04:54:28.328Z,273.15
2019-03-22T04:55:58.904Z,273.02
2019-03-22T04:57:28.334Z,273.02
2019-03-22T04:58:57.770Z,273.02
2019-03-22T05:00:27.210Z,273.02
2019-03-22T05:01:56.652Z,273.09
2019-03-22T05:03:26.090Z,273.02
2019-03-22T05:04:55.612Z,273.02
2019-03-22T05:06:28.734Z,273.09
2019-03-22T05:07:58.251Z,273.15
2019-03-22T05:09:27.860Z,273.09
2019-03-22T05:10:57.612Z,273.09
2019-03-22T05:12:27.143Z,273.02
2019-03-22T05:13:56.652Z,273.02
2019-03-22T05:15:26.256Z,273.02
2019-03-22T05:16:55.694Z,273.09
2019-03-22T05:18:25.133Z,273.09
2019-03-22T05:19:54.578Z,273.02
2019-03-22T05:21:24.098Z,273.02
2019-03-22T05:22:53.618Z,273.09
2019-03-22T05:24:23.215Z,273.09
2019-03-22T05:25:55.690Z,273.09
2019-03-22T05:27:25.218Z,273.02
2019-03-22T05:28:54.806Z,273.02
2019-03-22T05:30:24.247Z,273.02
2019-03-22T05:31:53.774Z,273.09
2019-03-22T05:33:24.473Z,273.09
2019-03-22T05:36:35.016Z,273.02
2019-03-22T05:38:06.890Z,273.09
2019-03-22T05:43:04.030Z,273.15
2019-03-22T05:45:23.474Z,273.15
2019-03-22T05:46:58.815Z,273.15
2019-03-22T05:48:50.325Z,273.21
2019-03-22T05:51:33.842Z,273.34
2019-03-22T05:53:03.636Z,273.4
2019-03-22T05:54:42.610Z,273.4
2019-03-22T05:56:17.559Z,273.4
2019-03-22T05:57:47.301Z,273.34
2019-03-22T05:59:22.939Z,273.4
2019-03-22T06:01:09.692Z,273.46
2019-03-22T06:08:51.685Z,273.46
2019-03-22T06:10:21.122Z,273.52
2019-03-22T06:11:50.638Z,273.59
2019-03-22T06:13:20.181Z,273.59
2019-03-22T06:14:49.769Z,273.65
2019-03-22T06:16:21.045Z,273.71
2019-03-22T06:17:51.777Z,273.65
2019-03-22T06:19:21.520Z,273.71
2019-03-22T06:20:50.957Z,273.77
2019-03-22T06:22:22.396Z,273.84
2019-03-22T06:23:52.397Z,273.84
2019-03-22T06:25:21.865Z,273.9
2019-03-22T06:26:51.517Z,273.96
2019-03-22T06:28:20.968Z,273.96
2019-03-22T06:29:54.323Z,273.96
2019-03-22T06:31:24.959Z,274.02
2019-03-22T06:32:57.357Z,274.02
2019-03-22T06:34:26.799Z,274.09
2019-03-22T06:35:56.395Z,274.15
2019-03-22T06:37:25.836Z,274.21
2019-03-22T06:38:55.435Z,274.21
2019-03-22T06:40:24.958Z,274.27
2019-03-22T06:41:54.475Z,274.34
2019-03-22T06:43:23.999Z,274.4
2019-03-22T06:44:54.398Z,274.4
2019-03-22T06:46:23.834Z,274.46
2019-03-22T06:47:53.274Z,274.46
2019-03-22T06:49:23.676Z,274.46
2019-03-22T06:50:55.035Z,274.46
2019-03-22T06:52:25.358Z,274.46
2019-03-22T06:53:54.803Z,274.4
2019-03-22T06:55:24.397Z,274.4
2019-03-22T06:56:53.921Z,274.46
2019-03-22T06:58:24.267Z,274.52
2019-03-22T07:00:05.742Z,274.59
2019-03-22T07:01:36.809Z,274.59
2019-03-22T07:03:06.236Z,274.59
2019-03-22T07:04:35.680Z,274.59
2019-03-22T07:06:05.173Z,274.59
2019-03-22T07:07:34.559Z,274.65
2019-03-22T07:09:04.880Z,274.77
2019-03-22T07:10:35.326Z,274.84
2019-03-22T07:12:04.904Z,274.84
2019-03-22T07:13:34.556Z,274.9
2019-03-22T07:15:03.996Z,275.02
2019-03-22T07:16:34.396Z,275.09
2019-03-22T07:18:03.837Z,275.15
2019-03-22T07:19:33.605Z,275.21
2019-03-22T07:21:03.916Z,275.21
2019-03-22T07:22:33.437Z,275.21
2019-03-22T07:24:02.875Z,275.34
2019-03-22T07:25:32.396Z,275.52
2019-03-22T07:27:01.836Z,275.46
2019-03-22T07:28:31.999Z,275.65
2019-03-22T07:30:01.437Z,275.71
2019-03-22T07:31:43.754Z,275.71
2019-03-22T07:33:13.438Z,275.77
2019-03-22T07:34:43.762Z,275.84
2019-03-22T07:36:14.081Z,275.84
2019-03-22T07:37:43.519Z,275.9
2019-03-22T07:39:12.957Z,276.02
2019-03-22T07:40:44.075Z,276.02
2019-03-22T07:42:14.074Z,276.02
2019-03-22T07:43:43.513Z,276.15
2019-03-22T07:45:13.037Z,276.21
2019-03-22T07:46:44.253Z,276.27
2019-03-22T07:48:14.558Z,276.27
2019-03-22T07:49:43.996Z,276.4
2019-03-22T07:51:13.434Z,276.46
2019-03-22T07:52:43.194Z,276.71
2019-03-22T07:54:12.636Z,276.71
2019-03-22T07:55:42.158Z,276.77
2019-03-22T07:57:11.593Z,276.9
2019-03-22T07:58:42.076Z,276.96
2019-03-22T08:00:12.554Z,277.02
2019-03-22T08:01:56.557Z,277.09
2019-03-22T08:03:26.157Z,277.15
2019-03-22T08:04:55.678Z,277.21
2019-03-22T08:06:25.118Z,277.34
2019-03-22T08:07:56.181Z,277.34
2019-03-22T08:09:26.960Z,277.46
2019-03-22T08:10:57.762Z,277.46
2019-03-22T08:12:28.082Z,277.59
2019-03-22T08:13:58.400Z,277.71
2019-03-22T08:15:27.929Z,277.77
2019-03-22T08:16:57.443Z,277.71
2019-03-22T08:18:27.069Z,277.71
2019-03-22T08:19:57.316Z,277.77
2019-03-22T08:21:27.520Z,277.9
2019-03-22T08:22:59.717Z,277.9
2019-03-22T08:24:30.104Z,278.09
2019-03-22T08:25:59.724Z,278.15
2019-03-22T08:27:30.420Z,278.15
2019-03-22T08:29:00.002Z,278.27
2019-03-22T08:30:29.608Z,278.46
2019-03-22T08:32:08.829Z,278.65
2019-03-22T08:33:38.321Z,278.9
2019-03-22T08:35:08.740Z,278.84
2019-03-22T08:36:38.243Z,279.09
2019-03-22T08:38:09.601Z,279.09
2019-03-22T08:39:42.179Z,279.34
2019-03-22T08:41:11.689Z,279.27
2019-03-22T08:42:41.220Z,279.4
2019-03-22T08:44:12.682Z,279.65
2019-03-22T08:45:42.195Z,279.71
2019-03-22T08:47:12.561Z,279.84
2019-03-22T08:48:42.506Z,279.84
2019-03-22T08:50:11.999Z,279.77
2019-03-22T08:51:41.461Z,279.84
2019-03-22T08:53:14.663Z,279.9
2019-03-22T08:54:45.803Z,279.9
2019-03-22T08:56:15.303Z,280.02
2019-03-22T08:57:44.827Z,280.34
2019-03-22T08:59:14.402Z,280.4
2019-03-22T09:00:56.601Z,280.52
2019-03-22T09:02:27.361Z,280.52
2019-03-22T09:03:57.387Z,280.52
2019-03-22T09:05:26.884Z,280.59
2019-03-22T09:06:58.890Z,280.65
2019-03-22T09:08:28.719Z,280.84
2019-03-22T09:09:59.207Z,280.96
2019-03-22T09:11:28.644Z,281.09
2019-03-22T09:12:58.159Z,281.34
2019-03-22T09:14:27.727Z,281.34
2019-03-22T09:15:57.118Z,281.4
2019-03-22T09:17:26.650Z,281.46
2019-03-22T09:18:56.256Z,281.52
2019-03-22T09:20:26.723Z,281.52
2019-03-22T09:21:56.159Z,281.52
2019-03-22T09:23:25.758Z,281.71
2019-03-22T09:24:55.277Z,281.65
2019-03-22T09:26:25.093Z,281.71
2019-03-22T09:27:54.772Z,281.71
2019-03-22T09:29:24.204Z,281.77
2019-03-22T09:30:53.601Z,281.77
2019-03-22T09:32:36.322Z,281.9
2019-03-22T09:34:05.842Z,282.02
2019-03-22T09:35:35.382Z,281.9
2019-03-22T09:37:05.047Z,282.09
2019-03-22T09:38:35.444Z,282.09
2019-03-22T09:40:04.929Z,282.21
2019-03-22T09:41:34.601Z,282.27
2019-03-22T09:43:04.165Z,282.27
2019-03-22T09:44:42.960Z,282.34
2019-03-22T09:46:12.884Z,282.46
2019-03-22T09:47:42.443Z,282.59
2019-03-22T09:49:13.772Z,282.59
2019-03-22T09:50:43.302Z,282.71
2019-03-22T09:52:12.882Z,282.9
2019-03-22T09:53:43.452Z,283.09
2019-03-22T09:55:14.434Z,282.9
2019-03-22T09:56:47.175Z,282.9
2019-03-22T09:58:17.148Z,282.96
2019-03-22T09:59:48.651Z,283.15
2019-03-22T10:01:23.344Z,283.34
2019-03-22T10:02:55.234Z,283.52
2019-03-22T10:04:24.925Z,283.52
2019-03-22T10:05:55.364Z,283.52
2019-03-22T10:07:25.840Z,283.59
2019-03-22T10:08:55.788Z,283.77
2019-03-22T10:10:30.639Z,284.09
2019-03-22T10:12:00.296Z,283.71
2019-03-22T10:13:29.760Z,283.65
2019-03-22T10:14:59.280Z,283.71
2019-03-22T10:16:29.047Z,283.9
2019-03-22T10:17:58.592Z,283.84
2019-03-22T10:19:29.923Z,283.9
2019-03-22T10:21:00.373Z,283.9
2019-03-22T10:22:31.775Z,284.09
2019-03-22T10:24:02.060Z,284.09
2019-03-22T10:25:31.599Z,284.15
2019-03-22T10:27:01.612Z,284.09
2019-03-22T10:28:31.638Z,284.27
2019-03-22T10:30:01.201Z,284.34
2019-03-22T10:31:36.859Z,284.59
2019-03-22T10:33:06.804Z,285.21
2019-03-22T10:34:47.761Z,285.09
2019-03-22T10:36:17.321Z,284.96
2019-03-22T10:37:47.841Z,284.71
2019-03-22T10:39:30.721Z,285.09
2019-03-22T10:41:01.296Z,284.84
2019-03-22T10:42:31.850Z,285.15
2019-03-22T10:44:01.480Z,285.21
2019-03-22T10:45:30.964Z,285.34
2019-03-22T10:47:00.591Z,285.27
2019-03-22T10:48:32.882Z,285.09
2019-03-22T10:50:04.321Z,285.4
2019-03-22T10:51:33.865Z,285.65
2019-03-22T10:53:03.438Z,285.34
2019-03-22T10:54:33.971Z,285.34
2019-03-22T10:56:03.600Z,285.46
2019-03-22T10:57:33.041Z,285.59
2019-03-22T10:59:06.078Z,285.59
2019-03-22T11:00:36.410Z,285.71
2019-03-22T11:02:07.885Z,285.71
2019-03-22T11:03:37.460Z,285.71
2019-03-22T11:05:07.373Z,285.9
2019-03-22T11:06:36.878Z,286.09
2019-03-22T11:08:07.282Z,285.84
2019-03-22T11:09:36.719Z,285.84
2019-03-22T11:11:06.318Z,285.9
2019-03-22T11:12:35.998Z,286.09
2019-03-22T11:14:06.493Z,286.15
2019-03-22T11:15:36.240Z,286.27
2019-03-22T11:17:14.397Z,286.27
2019-03-22T11:18:44.322Z,286.21
2019-03-22T11:20:14.322Z,286.21
2019-03-22T11:21:44.320Z,286.21
2019-03-22T11:23:14.080Z,286.27
2019-03-22T11:24:43.518Z,286.27
2019-03-22T11:26:13.923Z,286.34
2019-03-22T11:27:46.077Z,286.46
2019-03-22T11:29:17.278Z,286.4
2019-03-22T11:30:46.731Z,286.52
2019-03-22T11:32:16.157Z,286.65
2019-03-22T11:33:45.678Z,287.09
2019-03-22T11:35:15.198Z,286.96
2019-03-22T11:36:44.638Z,286.84
2019-03-22T11:38:14.240Z,286.84
2019-03-22T11:39:43.681Z,286.77
2019-03-22T11:41:13.121Z,286.96
2019-03-22T11:42:42.643Z,286.96
2019-03-22T11:44:12.077Z,287.09
2019-03-22T11:45:41.517Z,287.15
2019-03-22T11:47:10.961Z,287.09
2019-03-22T11:48:40.804Z,287.09
2019-03-22T11:50:11.039Z,287.15
2019-03-22T11:51:40.558Z,287.34
2019-03-22T11:53:09.997Z,287.27
2019-03-22T11:54:39.446Z,287.46
2019-03-22T11:56:09.494Z,287.59
2019-03-22T11:57:39.038Z,287.65
2019-03-22T11:59:08.478Z,287.59
2019-03-22T12:00:37.917Z,287.84
2019-03-22T12:02:07.358Z,288.15
2019-03-22T12:03:47.204Z,288.15
2019-03-22T12:05:16.798Z,288.02
2019-03-22T12:06:46.241Z,288.09
2019-03-22T12:08:15.679Z,287.96
2019-03-22T12:09:45.525Z,287.96
2019-03-22T12:11:14.968Z,288.09
2019-03-22T12:12:44.489Z,288.02
2019-03-22T12:14:14.401Z,288.21
2019-03-22T12:15:43.843Z,288.02
2019-03-22T12:17:14.241Z,288.09
2019-03-22T12:18:43.688Z,288.27
2019-03-22T12:20:14.964Z,288.21
2019-03-22T12:21:44.801Z,288.21
2019-03-22T12:23:14.402Z,288.27
2019-03-22T12:24:43.922Z,288.21
2019-03-22T12:26:14.321Z,288.21
2019-03-22T12:27:43.760Z,288.21
2019-03-22T12:29:13.198Z,288.34
2019-03-22T12:30:42.720Z,288.4
2019-03-22T12:32:13.121Z,288.46
2019-03-22T12:33:43.380Z,288.4
2019-03-22T12:35:12.880Z,288.4
2019-03-22T12:36:42.367Z,288.46
2019-03-22T12:38:12.718Z,288.52
2019-03-22T12:39:43.920Z,288.52
2019-03-22T12:41:14.241Z,288.59
2019-03-22T12:42:43.761Z,288.52
2019-03-22T12:44:13.215Z,288.71
2019-03-22T12:45:42.637Z,288.71
2019-03-22T12:47:12.078Z,288.71
2019-03-22T12:48:42.645Z,288.71
2019-03-22T12:50:12.079Z,288.84
2019-03-22T12:51:41.609Z,288.96
2019-03-22T12:53:11.039Z,289.09
2019-03-22T12:54:40.477Z,289.27
2019-03-22T12:56:09.923Z,289.27
2019-03-22T12:57:39.359Z,289.15
2019-03-22T12:59:08.798Z,289.09
2019-03-22T13:00:38.247Z,289.02
2019-03-22T13:02:07.757Z,289.02
2019-03-22T13:03:38.961Z,289.02
2019-03-22T13:05:09.359Z,289.09
2019-03-22T13:06:38.801Z,289.15
2019-03-22T13:08:08.244Z,289.09
2019-03-22T13:09:37.759Z,289.15
2019-03-22T13:11:07.196Z,289.21
2019-03-22T13:12:36.717Z,289.27
2019-03-22T13:14:06.159Z,289.27
2019-03-22T13:15:35.599Z,289.34
2019-03-22T13:17:05.042Z,289.34
2019-03-22T13:18:34.480Z,289.46
2019-03-22T13:20:14.959Z,289.46
2019-03-22T13:21:44.401Z,289.52
2019-03-22T13:23:13.839Z,289.46
2019-03-22T13:24:43.277Z,289.46
2019-03-22T13:26:12.799Z,289.52
2019-03-22T13:27:42.238Z,289.52
2019-03-22T13:29:11.677Z,289.59
2019-03-22T13:30:41.128Z,289.96
2019-03-22T13:32:10.641Z,290.02
2019-03-22T13:33:40.079Z,290.02
2019-03-22T13:35:10.398Z,289.84
2019-03-22T13:36:39.837Z,289.77
2019-03-22T13:38:09.277Z,289.84
2019-03-22T13:39:38.718Z,289.84
2019-03-22T13:41:08.158Z,289.77
2019-03-22T13:42:39.365Z,290.09
2019-03-22T13:44:09.678Z,290.09
2019-03-22T13:45:39.279Z,290.21
2019-03-22T13:47:08.719Z,290.34
2019-03-22T13:48:38.247Z,290.59
2019-03-22T13:50:07.680Z,290.52
2019-03-22T13:51:38.876Z,290.52
2019-03-22T13:53:09.280Z,290.46
2019-03-22T13:54:38.727Z,290.46
2019-03-22T13:56:08.240Z,290.52
2019-03-22T13:57:37.685Z,290.46
2019-03-22T13:59:08.076Z,290.59
2019-03-22T14:00:37.599Z,290.65
2019-03-22T14:02:07.162Z,290.65
2019-03-22T14:03:37.441Z,290.59
2019-03-22T14:05:07.198Z,290.59
2019-03-22T14:06:36.724Z,290.65
2019-03-22T14:08:06.245Z,290.71
2019-03-22T14:09:36.640Z,290.77
2019-03-22T14:11:06.078Z,290.77
2019-03-22T14:12:37.086Z,290.84
2019-03-22T14:14:06.880Z,290.84
2019-03-22T14:15:36.322Z,290.84
2019-03-22T14:17:05.839Z,290.9
2019-03-22T14:18:35.278Z,290.9
2019-03-22T14:20:11.062Z,291.02
2019-03-22T14:21:41.840Z,291.09
2019-03-22T14:23:12.319Z,291.27
2019-03-22T14:24:41.761Z,291.21
2019-03-22T14:26:13.601Z,291.21
2019-03-22T14:27:44.804Z,291.27
2019-03-22T14:29:15.205Z,291.4
2019-03-22T14:30:45.599Z,291.4
2019-03-22T14:32:15.038Z,291.4
2019-03-22T14:33:45.440Z,291.46
2019-03-22T14:35:14.886Z,291.52
2019-03-22T14:36:44.327Z,291.46
2019-03-22T14:38:13.762Z,291.59
2019-03-22T14:39:43.358Z,291.59
2019-03-22T14:41:13.680Z,291.59
2019-03-22T14:42:43.117Z,291.59
2019-03-22T14:44:12.638Z,291.65
2019-03-22T14:45:52.798Z,291.59
2019-03-22T14:47:22.240Z,291.65
2019-03-22T14:48:51.694Z,291.59
2019-03-22T14:50:21.133Z,291.65
2019-03-22T14:51:51.531Z,291.65
2019-03-22T14:53:21.533Z,291.71
2019-03-22T14:54:51.916Z,291.77
2019-03-22T14:56:24.157Z,291.84
2019-03-22T14:57:54.494Z,291.84
2019-03-22T14:59:23.918Z,291.84
2019-03-22T15:00:53.363Z,291.84
2019-03-22T15:02:23.681Z,291.9
2019-03-22T15:03:53.212Z,291.96
2019-03-22T15:05:22.717Z,291.96
2019-03-22T15:06:52.317Z,292.02
2019-03-22T15:08:21.759Z,292.02
2019-03-22T15:09:51.199Z,292.09
2019-03-22T15:11:20.717Z,292.02
2019-03-22T15:12:50.161Z,292.02
2019-03-22T15:14:19.595Z,291.9
2019-03-22T15:15:50.158Z,292.02
2019-03-22T15:17:20.480Z,292.02
2019-03-22T15:18:49.997Z,292.09
2019-03-22T15:20:19.436Z,292.09
2019-03-22T15:21:48.956Z,292.09
2019-03-22T15:23:18.396Z,292.15
2019-03-22T15:24:48.077Z,292.02
2019-03-22T15:26:17.519Z,292.02
2019-03-22T15:27:46.955Z,291.96
2019-03-22T15:29:16.483Z,292.02
2019-03-22T15:30:46.242Z,292.09
2019-03-22T15:32:15.678Z,292.02
2019-03-22T15:33:45.200Z,292.02
2019-03-22T15:35:14.935Z,292.02
2019-03-22T15:36:44.881Z,292.02
2019-03-22T15:38:15.119Z,292.02
2019-03-22T15:39:47.125Z,292.02
2019-03-22T15:41:17.535Z,292.02
2019-03-22T15:42:48.344Z,292.09
2019-03-22T15:44:17.787Z,292.09
2019-03-22T15:45:47.364Z,292.09
2019-03-22T15:47:16.800Z,291.96
2019-03-22T15:48:46.240Z,292.02
2019-03-22T15:50:16.557Z,291.96
2019-03-22T15:51:46.005Z,291.96
2019-03-22T15:53:15.439Z,291.96
2019-03-22T15:54:44.877Z,291.96
2019-03-22T15:56:14.396Z,291.96
2019-03-22T15:57:43.916Z,291.84
2019-03-22T15:59:13.356Z,291.77
2019-03-22T16:00:42.798Z,291.71
2019-03-22T16:02:12.318Z,291.77
2019-03-22T16:03:44.016Z,291.77
2019-03-22T16:05:14.078Z,291.71
2019-03-22T16:06:43.519Z,291.71
2019-03-22T16:08:12.958Z,291.65
2019-03-22T16:09:42.479Z,291.52
2019-03-22T16:11:11.920Z,291.46
2019-03-22T16:12:41.361Z,291.52
2019-03-22T16:14:11.678Z,291.46
2019-03-22T16:15:41.199Z,291.4
2019-03-22T16:17:10.890Z,291.34
2019-03-22T16:18:40.399Z,291.27
2019-03-22T16:20:09.838Z,291.27
2019-03-22T16:21:39.357Z,291.21
2019-03-22T16:23:08.797Z,291.21
2019-03-22T16:24:39.119Z,291.15
2019-03-22T16:26:08.559Z,291.09
2019-03-22T16:27:38.078Z,291.09
2019-03-22T16:29:07.518Z,290.96
2019-03-22T16:30:36.959Z,290.9
2019-03-22T16:32:06.399Z,290.84
2019-03-22T16:33:35.849Z,290.84
2019-03-22T16:35:05.285Z,290.84
2019-03-22T16:36:34.720Z,290.77
2019-03-22T16:38:04.239Z,290.71
2019-03-22T16:39:34.963Z,290.65
2019-03-22T16:41:04.485Z,290.46
2019-03-22T16:42:34.002Z,290.27
2019-03-22T16:44:03.439Z,290.15
2019-03-22T16:45:33.523Z,290.09
2019-03-22T16:47:03.920Z,289.96
2019-03-22T16:48:33.360Z,289.84
2019-03-22T16:50:02.881Z,289.65
2019-03-22T16:51:33.919Z,289.59
2019-03-22T16:53:04.724Z,289.46
2019-03-22T16:54:34.239Z,289.21
2019-03-22T16:56:03.684Z,288.9
2019-03-22T16:57:33.130Z,288.77
2019-03-22T16:59:02.798Z,288.59
2019-03-22T17:00:32.243Z,288.46
2019-03-22T17:02:01.678Z,288.46
2019-03-22T17:03:31.124Z,288.34
2019-03-22T17:05:00.666Z,288.21
2019-03-22T17:06:30.171Z,288.09
2019-03-22T17:07:59.600Z,287.96
2019-03-22T17:09:29.923Z,287.9
2019-03-22T17:10:59.439Z,287.84
2019-03-22T17:12:29.841Z,287.65
2019-03-22T17:14:01.039Z,287.59
2019-03-22T17:15:30.557Z,287.46
2019-03-22T17:17:00.008Z,287.27
2019-03-22T17:18:29.519Z,287.15
2019-03-22T17:19:58.958Z,287.02
2019-03-22T17:21:28.401Z,286.84
2019-03-22T17:22:57.924Z,286.71
2019-03-22T17:24:27.360Z,286.65
2019-03-22T17:25:57.762Z,286.52
2019-03-22T17:27:28.962Z,286.46
2019-03-22T17:28:58.399Z,286.4
2019-03-22T17:30:27.921Z,286.34
2019-03-22T17:31:57.517Z,286.21
2019-03-22T17:33:26.957Z,286.15
2019-03-22T17:34:56.406Z,286.02
2019-03-22T17:36:25.997Z,285.9
2019-03-22T17:37:55.517Z,285.77
2019-03-22T17:39:24.963Z,285.84
2019-03-22T17:40:54.407Z,285.71
2019-03-22T17:42:23.851Z,285.59
2019-03-22T17:43:53.282Z,285.46
2019-03-22T17:45:22.724Z,285.4
2019-03-22T17:46:52.158Z,285.21
2019-03-22T17:48:22.483Z,285.09
2019-03-22T17:49:52.001Z,285.02
2019-03-22T17:51:22.080Z,284.84
2019-03-22T17:52:51.520Z,284.77
2019-03-22T17:54:22.720Z,284.71
2019-03-22T17:55:52.238Z,284.65
2019-03-22T17:57:21.760Z,284.59
2019-03-22T17:58:51.279Z,284.52
2019-03-22T18:00:20.797Z,284.46
2019-03-22T18:01:50.238Z,284.34
2019-03-22T18:03:20.799Z,284.27
2019-03-22T18:04:50.320Z,284.21
2019-03-22T18:06:19.852Z,284.21
2019-03-22T18:07:50.241Z,284.09
2019-03-22T18:09:19.678Z,284.02
2019-03-22T18:10:49.118Z,283.96
2019-03-22T18:12:18.636Z,283.84
2019-03-22T18:13:48.238Z,283.77
2019-03-22T18:15:17.679Z,283.71
2019-03-22T18:16:47.199Z,283.59
2019-03-22T18:18:16.639Z,283.59
2019-03-22T18:19:47.036Z,283.59
2019-03-22T18:21:16.477Z,283.46
2019-03-22T18:22:45.916Z,283.46
2019-03-22T18:24:15.447Z,283.4
2019-03-22T18:25:45.045Z,283.27
2019-03-22T18:27:14.477Z,283.21
2019-03-22T18:28:44.797Z,283.21
2019-03-22T18:30:14.320Z,283.15
2019-03-22T18:31:44.719Z,283.09
2019-03-22T18:33:14.161Z,283.02
2019-03-22T18:34:45.516Z,283.02
2019-03-22T18:36:15.922Z,283.02
2019-03-22T18:37:45.367Z,282.9
2019-03-22T18:39:15.198Z,282.84
2019-03-22T18:40:44.636Z,282.77
2019-03-22T18:42:14.476Z,282.71
2019-03-22T18:43:43.918Z,282.65
2019-03-22T18:45:14.402Z,282.65
2019-03-22T18:46:43.999Z,282.52
2019-03-22T18:48:13.520Z,282.46
2019-03-22T18:49:43.842Z,282.46
2019-03-22T18:51:13.378Z,282.34
2019-03-22T18:52:42.964Z,282.34
2019-03-22T18:54:12.400Z,282.27
2019-03-22T18:55:42.798Z,282.27
2019-03-22T18:57:12.242Z,282.27
2019-03-22T18:58:41.680Z,282.21
2019-03-22T19:00:12.001Z,282.15
2019-03-22T19:01:43.362Z,282.15
2019-03-22T19:03:12.806Z,282.09